METAR Data
IDs: Format: Raw Decoded Include TAF

Data at: 0602 UTC 03 Jul 2022

METAR for:KHEF (Manassas Rgnl, VA, US)
Text:KHEF 030556Z AUTO 09004KT 10SM FEW024 BKN060 BKN110 24/22 A2997 RMK AO2 SLP153 T02440217 10294 20244 50002
Temperature: 24.4°C ( 76°F)
Dewpoint: 21.7°C ( 71°F) [RH = 85%]
Pressure (altimeter):29.97 inches Hg (1015.0 mb) [Sea level pressure: 1015.3 mb]
Winds:from the E (90 degrees) at 5 MPH (4 knots; 2.1 m/s)
Visibility:10 or more sm (16+ km)
Ceiling:6000 feet AGL
Clouds: few clouds at 2400 feet AGL, broken clouds at 6000 feet AGL, broken clouds at 11000 feet AGL
QC Flag:automated observation with no human augmentation

TAF for:KHEF (Manassas Rgnl, VA, US)
Text:No data found